createdAt,value
2018-03-17T00:02:12.468Z,17.67
2018-03-17T00:04:40.052Z,16.73
2018-03-17T00:07:07.663Z,17.30
2018-03-17T00:09:35.286Z,16.75
2018-03-17T00:12:03.374Z,15.20
2018-03-17T00:14:30.988Z,15.30
2018-03-17T00:16:58.615Z,15.02
2018-03-17T00:19:26.219Z,17.80
2018-03-17T00:21:53.880Z,18.60
2018-03-17T00:24:21.455Z,18.50
2018-03-17T00:26:49.022Z,16.98
2018-03-17T00:29:16.664Z,17.95
2018-03-17T00:31:44.263Z,16.73
2018-03-17T00:34:12.638Z,17.20
2018-03-17T00:36:40.283Z,15.90
2018-03-17T00:39:07.888Z,15.73
2018-03-17T00:41:35.504Z,15.90
2018-03-17T00:44:03.111Z,15.57
2018-03-17T00:46:30.760Z,14.98
2018-03-17T00:48:58.363Z,15.45
2018-03-17T00:51:25.964Z,18.15
2018-03-17T00:53:58.403Z,18.90
2018-03-17T00:56:26.007Z,18.40
2018-03-17T00:58:53.609Z,18.37
2018-03-17T01:01:21.224Z,18.37
2018-03-17T01:03:48.824Z,18.60
2018-03-17T01:06:16.419Z,17.48
2018-03-17T01:08:44.052Z,19.55
2018-03-17T01:11:11.625Z,18.23
2018-03-17T01:13:39.190Z,19.48
2018-03-17T01:16:06.806Z,19.60
2018-03-17T01:18:34.453Z,19.62
2018-03-17T01:21:02.012Z,20.83
2018-03-17T01:23:29.661Z,25.37
2018-03-17T01:25:57.312Z,23.42
2018-03-17T01:28:25.647Z,23.23
2018-03-17T01:30:53.248Z,21.42
2018-03-17T01:33:21.611Z,23.83
2018-03-17T01:35:49.231Z,21.67
2018-03-17T01:38:17.413Z,20.55
2018-03-17T01:40:45.865Z,19.67
2018-03-17T01:43:13.489Z,19.25
2018-03-17T01:45:41.109Z,18.65
2018-03-17T01:48:08.708Z,18.17
2018-03-17T01:50:36.329Z,18.02
2018-03-17T01:53:03.948Z,15.35
2018-03-17T01:55:32.344Z,16.48
2018-03-17T01:57:59.962Z,16.25
2018-03-17T02:00:27.835Z,16.45
2018-03-17T02:02:55.420Z,16.77
2018-03-17T02:05:23.066Z,17.25
2018-03-17T02:07:53.413Z,18.80
2018-03-17T02:10:21.823Z,18.80
2018-03-17T02:12:49.458Z,18.10
2018-03-17T02:15:17.077Z,19.15
2018-03-17T02:17:44.691Z,17.40
2018-03-17T02:20:12.275Z,17.35
2018-03-17T02:22:39.863Z,19.37
2018-03-17T02:25:07.487Z,22.08
2018-03-17T02:27:35.115Z,25.00
2018-03-17T02:30:04.267Z,23.77
2018-03-17T02:32:31.884Z,24.37
2018-03-17T02:34:59.505Z,23.67
2018-03-17T02:37:27.156Z,23.83
2018-03-17T02:39:54.739Z,23.23
2018-03-17T02:42:23.080Z,22.20
2018-03-17T02:44:50.697Z,22.08
2018-03-17T02:47:18.297Z,23.23
2018-03-17T02:49:45.931Z,20.42
2018-03-17T02:52:13.537Z,26.35
2018-03-17T02:54:41.180Z,24.73
2018-03-17T02:57:08.814Z,23.83
2018-03-17T02:59:36.442Z,22.73
2018-03-17T03:02:04.822Z,24.10
2018-03-17T03:04:33.227Z,24.70
2018-03-17T03:07:00.806Z,21.80
2018-03-17T03:09:28.468Z,23.50
2018-03-17T03:11:56.076Z,24.98
2018-03-17T03:14:23.656Z,23.55
2018-03-17T03:16:51.292Z,23.38
2018-03-17T03:19:18.879Z,23.75
2018-03-17T03:21:46.517Z,25.70
2018-03-17T03:24:14.100Z,26.25
2018-03-17T03:26:41.696Z,26.95
2018-03-17T03:29:09.335Z,31.15
2018-03-17T03:31:36.889Z,33.08
2018-03-17T03:34:04.533Z,29.87
2018-03-17T03:36:32.907Z,33.13
2018-03-17T03:39:02.236Z,29.42
2018-03-17T03:41:29.845Z,31.80
2018-03-17T03:43:57.422Z,33.30
2018-03-17T03:46:25.078Z,33.03
2018-03-17T03:48:53.488Z,31.08
2018-03-17T03:51:21.123Z,31.33
2018-03-17T03:53:48.747Z,32.25
2018-03-17T03:56:16.344Z,33.72
2018-03-17T03:58:43.914Z,32.95
2018-03-17T04:01:12.255Z,30.88
2018-03-17T04:03:39.867Z,32.50
2018-03-17T04:06:07.449Z,31.90
2018-03-17T04:08:35.114Z,28.15
2018-03-17T04:11:02.772Z,26.33
2018-03-17T04:13:30.404Z,27.25
2018-03-17T04:15:58.776Z,25.80
2018-03-17T04:18:27.148Z,24.67
2018-03-17T04:20:55.539Z,24.12
2018-03-17T04:23:23.944Z,27.37
2018-03-17T04:25:51.538Z,27.95
2018-03-17T04:28:19.151Z,27.20
2018-03-17T04:30:46.763Z,26.10
2018-03-17T04:33:14.344Z,24.65
2018-03-17T04:35:42.736Z,22.17
2018-03-17T04:38:11.083Z,20.85
2018-03-17T04:40:38.682Z,19.25
2018-03-17T04:43:06.298Z,18.92
2018-03-17T04:45:33.869Z,18.87
2018-03-17T04:48:02.479Z,21.10
2018-03-17T04:50:30.827Z,20.08
2018-03-17T04:52:58.441Z,17.12
2018-03-17T04:55:26.038Z,16.20
2018-03-17T04:57:53.715Z,16.12
2018-03-17T05:00:21.312Z,14.75
2018-03-17T05:02:48.897Z,16.45
2018-03-17T05:05:16.473Z,16.25
2018-03-17T05:07:44.064Z,16.30
2018-03-17T05:10:12.420Z,15.63
2018-03-17T05:12:40.029Z,14.40
2018-03-17T05:15:07.714Z,14.32
2018-03-17T05:17:35.331Z,13.93
2018-03-17T05:20:03.698Z,15.40
2018-03-17T05:22:31.284Z,15.13
2018-03-17T05:25:00.093Z,14.77
2018-03-17T05:27:27.688Z,13.95
2018-03-17T05:29:55.300Z,13.98
2018-03-17T05:32:22.862Z,14.55
2018-03-17T05:34:50.458Z,14.73
2018-03-17T05:37:18.100Z,15.48
2018-03-17T05:39:45.660Z,15.57
2018-03-17T05:42:13.279Z,13.82
2018-03-17T05:44:47.543Z,16.05
2018-03-17T05:47:15.227Z,19.80
2018-03-17T05:49:42.820Z,19.42
2018-03-17T05:52:36.495Z,18.10
2018-03-17T05:55:04.834Z,16.30
2018-03-17T05:57:49.148Z,17.33
2018-03-17T06:00:16.711Z,18.10
2018-03-17T06:02:44.358Z,18.25
2018-03-17T06:05:12.915Z,17.50
2018-03-17T06:07:41.259Z,18.05
2018-03-17T06:10:09.507Z,18.30
2018-03-17T06:12:37.155Z,17.17
2018-03-17T06:15:05.705Z,17.85
2018-03-17T06:17:33.319Z,18.00
2018-03-17T06:20:00.942Z,17.45
2018-03-17T06:22:29.309Z,18.62
2018-03-17T06:25:07.235Z,18.40
2018-03-17T06:30:33.507Z,20.58
2018-03-17T06:33:01.081Z,17.87
2018-03-17T06:35:28.684Z,19.35
2018-03-17T06:37:57.269Z,17.58
2018-03-17T06:40:51.448Z,19.50
2018-03-17T06:43:19.783Z,17.60
2018-03-17T06:45:47.399Z,19.87
2018-03-17T06:48:16.724Z,21.60
2018-03-17T06:50:44.326Z,20.58
2018-03-17T06:53:11.932Z,19.02
2018-03-17T06:58:42.524Z,19.85
2018-03-17T07:01:10.698Z,20.67
2018-03-17T07:03:38.292Z,20.30
2018-03-17T07:06:06.640Z,19.48
2018-03-17T07:08:53.115Z,19.20
2018-03-17T07:11:21.485Z,20.67
2018-03-17T07:13:49.101Z,21.83
2018-03-17T07:16:16.684Z,21.90
2018-03-17T07:18:45.070Z,20.37
2018-03-17T07:21:12.651Z,21.58
2018-03-17T07:23:40.283Z,22.62
2018-03-17T07:26:08.631Z,20.75
2018-03-17T07:28:36.863Z,21.55
2018-03-17T07:31:04.449Z,22.15
2018-03-17T07:33:32.027Z,21.67
2018-03-17T07:35:59.636Z,22.05
2018-03-17T07:38:27.251Z,21.98
2018-03-17T07:41:18.158Z,22.25
2018-03-17T07:43:46.745Z,23.50
2018-03-17T07:46:14.387Z,24.65
2018-03-17T07:48:41.961Z,24.83
2018-03-17T07:51:09.597Z,25.20
2018-03-17T07:53:37.181Z,23.80
2018-03-17T07:56:06.827Z,22.30
2018-03-17T07:58:34.427Z,22.83
2018-03-17T08:01:02.074Z,22.70
2018-03-17T08:03:29.700Z,23.00
2018-03-17T08:09:11.589Z,24.35
2018-03-17T08:11:39.228Z,24.00
2018-03-17T08:14:06.834Z,24.65
2018-03-17T08:16:35.196Z,26.12
2018-03-17T08:19:03.555Z,25.25
2018-03-17T08:21:31.188Z,24.83
2018-03-17T08:23:58.799Z,25.12
2018-03-17T08:26:26.374Z,24.37
2018-03-17T08:28:54.000Z,25.65
2018-03-17T08:31:21.628Z,26.12
2018-03-17T08:33:49.263Z,25.88
2018-03-17T08:36:16.910Z,25.35
2018-03-17T08:38:45.327Z,26.25
2018-03-17T08:41:12.938Z,25.00
2018-03-17T08:43:40.542Z,24.75
2018-03-17T08:46:08.887Z,26.33
2018-03-17T08:48:37.242Z,24.00
2018-03-17T08:51:04.829Z,27.08
2018-03-17T08:53:32.419Z,26.52
2018-03-17T08:56:00.024Z,26.20
2018-03-17T08:58:27.654Z,26.40
2018-03-17T09:00:55.270Z,25.00
2018-03-17T09:03:23.607Z,25.00
2018-03-17T09:05:51.288Z,27.73
2018-03-17T09:08:18.864Z,26.17
2018-03-17T09:10:46.501Z,26.77
2018-03-17T09:13:14.096Z,26.35
2018-03-17T09:15:41.736Z,26.50
2018-03-17T09:18:09.352Z,26.75
2018-03-17T09:20:36.957Z,26.00
2018-03-17T09:23:04.549Z,25.05
2018-03-17T09:25:32.155Z,24.27
2018-03-17T09:27:59.734Z,25.37
2018-03-17T09:30:28.124Z,26.27
2018-03-17T09:32:56.487Z,27.10
2018-03-17T09:35:24.853Z,24.35
2018-03-17T09:37:52.458Z,26.90
2018-03-17T09:40:20.091Z,25.83
2018-03-17T09:42:47.702Z,25.08
2018-03-17T09:45:15.298Z,27.83
2018-03-17T09:47:42.961Z,28.85
2018-03-17T09:50:10.517Z,27.70
2018-03-17T09:52:38.149Z,28.17
2018-03-17T09:55:05.762Z,29.35
2018-03-17T09:57:34.137Z,30.62
2018-03-17T10:00:02.568Z,40.70
2018-03-17T10:02:30.202Z,35.90
2018-03-17T10:04:57.838Z,30.88
2018-03-17T10:07:26.204Z,43.83
2018-03-17T10:09:53.768Z,31.00
2018-03-17T10:12:21.397Z,29.90
2018-03-17T10:14:48.993Z,34.75
2018-03-17T10:17:16.560Z,31.50
2018-03-17T10:20:03.894Z,29.17
2018-03-17T10:22:31.538Z,31.37
2018-03-17T10:25:07.148Z,29.92
2018-03-17T10:27:34.787Z,32.45
2018-03-17T10:30:02.375Z,30.12
2018-03-17T10:32:29.989Z,31.98
2018-03-17T10:34:57.614Z,30.50
2018-03-17T10:37:25.211Z,31.45
2018-03-17T10:39:53.597Z,32.63
2018-03-17T10:42:22.119Z,29.98
2018-03-17T10:44:49.708Z,32.08
2018-03-17T10:47:31.758Z,32.65
2018-03-17T10:49:59.402Z,31.62
2018-03-17T10:52:27.051Z,30.35
2018-03-17T10:54:55.419Z,29.63
2018-03-17T10:57:23.798Z,30.60
2018-03-17T10:59:52.167Z,32.03
2018-03-17T11:02:21.634Z,30.98
2018-03-17T11:04:49.190Z,30.45
2018-03-17T11:07:16.816Z,33.13
2018-03-17T11:09:44.470Z,30.55
2018-03-17T11:12:12.105Z,32.30
2018-03-17T11:14:40.507Z,31.10
2018-03-17T11:17:08.876Z,31.83
2018-03-17T11:19:37.824Z,32.25
2018-03-17T11:22:05.402Z,31.17
2018-03-17T11:24:33.995Z,29.12
2018-03-17T11:30:07.676Z,28.55
2018-03-17T11:38:25.237Z,29.37
2018-03-17T11:40:52.855Z,28.40
2018-03-17T11:43:21.231Z,29.98
2018-03-17T11:45:48.855Z,29.20
2018-03-17T11:48:16.423Z,30.62
2018-03-17T11:50:44.075Z,34.42
2018-03-17T11:53:12.386Z,31.12
2018-03-17T11:58:33.768Z,33.28
2018-03-17T12:01:01.389Z,31.65
2018-03-17T12:03:29.829Z,33.15
2018-03-17T12:05:57.469Z,33.97
2018-03-17T12:08:25.100Z,36.80
2018-03-17T12:10:53.518Z,34.50
2018-03-17T12:13:21.940Z,33.83
2018-03-17T12:15:49.536Z,32.05
2018-03-17T12:18:17.088Z,33.03
2018-03-17T12:20:44.760Z,32.65
2018-03-17T12:23:12.358Z,33.35
2018-03-17T12:25:39.951Z,29.70
2018-03-17T12:28:08.332Z,32.03
2018-03-17T12:30:36.671Z,32.08
2018-03-17T12:33:04.840Z,33.60
2018-03-17T12:35:32.470Z,32.72
2018-03-17T12:38:00.159Z,35.65
2018-03-17T12:40:27.752Z,34.85
2018-03-17T12:42:56.155Z,34.05
2018-03-17T12:45:24.082Z,32.65
2018-03-17T12:47:51.691Z,33.28
2018-03-17T12:50:19.312Z,33.80
2018-03-17T12:52:46.924Z,35.30
2018-03-17T12:55:14.544Z,35.55
2018-03-17T12:57:42.161Z,35.33
2018-03-17T13:00:09.762Z,35.55
2018-03-17T13:02:37.361Z,36.10
2018-03-17T13:05:04.968Z,34.00
2018-03-17T13:07:32.571Z,34.78
2018-03-17T13:10:00.154Z,33.63
2018-03-17T13:12:27.751Z,34.65
2018-03-17T13:14:56.577Z,35.30
2018-03-17T13:17:24.972Z,33.63
2018-03-17T13:19:52.573Z,33.83
2018-03-17T13:22:37.859Z,34.58
2018-03-17T13:25:05.475Z,32.85
2018-03-17T13:27:44.758Z,33.80
2018-03-17T13:30:12.358Z,34.50
2018-03-17T13:32:51.717Z,32.20
2018-03-17T13:35:19.331Z,34.10
2018-03-17T13:37:53.356Z,35.13
2018-03-17T13:40:30.078Z,33.50
2018-03-17T13:42:57.666Z,30.65
2018-03-17T13:45:25.290Z,33.00
2018-03-17T13:47:52.922Z,31.45
2018-03-17T13:50:20.503Z,29.75
2018-03-17T13:52:48.107Z,30.75
2018-03-17T13:55:15.700Z,31.42
2018-03-17T13:57:43.275Z,30.35
2018-03-17T14:00:10.912Z,31.00
2018-03-17T14:02:39.307Z,32.38
2018-03-17T14:05:21.421Z,31.52
2018-03-17T14:07:49.056Z,32.45
2018-03-17T14:10:16.694Z,26.50
2018-03-17T14:12:45.280Z,34.13
2018-03-17T14:15:12.894Z,31.75
2018-03-17T14:17:45.465Z,30.55
2018-03-17T14:20:16.440Z,31.40
2018-03-17T14:22:44.040Z,31.65
2018-03-17T14:25:11.666Z,30.83
2018-03-17T14:27:39.329Z,32.40
2018-03-17T14:30:06.982Z,32.13
2018-03-17T14:32:34.663Z,33.55
2018-03-17T14:35:02.288Z,31.20
2018-03-17T14:37:29.874Z,32.30
2018-03-17T14:39:57.517Z,32.28
2018-03-17T14:42:25.138Z,30.45
2018-03-17T14:44:52.762Z,32.45
2018-03-17T14:47:20.392Z,29.90
2018-03-17T14:49:48.016Z,26.25
2018-03-17T14:52:16.405Z,30.58
2018-03-17T14:54:43.995Z,30.10
2018-03-17T14:57:11.589Z,32.53
2018-03-17T14:59:39.974Z,32.03
2018-03-17T15:02:08.334Z,27.80
2018-03-17T15:04:35.930Z,30.65
2018-03-17T15:07:03.555Z,31.02
2018-03-17T15:09:31.180Z,31.67
2018-03-17T15:11:58.746Z,30.55
2018-03-17T15:14:26.324Z,30.75
2018-03-17T15:16:53.925Z,28.67
2018-03-17T15:19:21.508Z,31.10
2018-03-17T15:21:49.137Z,30.98
2018-03-17T15:24:17.554Z,30.20
2018-03-17T15:26:45.839Z,28.90
2018-03-17T15:29:13.424Z,32.05
2018-03-17T15:31:41.032Z,27.60
2018-03-17T15:34:08.644Z,31.20
2018-03-17T15:36:36.303Z,28.48
2018-03-17T15:39:03.912Z,29.50
2018-03-17T15:41:31.509Z,32.53
2018-03-17T15:43:59.116Z,30.75
2018-03-17T15:46:27.494Z,30.35
2018-03-17T15:48:55.846Z,31.50
2018-03-17T15:51:23.468Z,27.55
2018-03-17T15:53:52.014Z,32.17
2018-03-17T15:56:20.423Z,31.60
2018-03-17T15:58:48.045Z,31.60
2018-03-17T16:01:16.431Z,32.38
2018-03-17T16:03:44.819Z,28.25
2018-03-17T16:06:12.437Z,30.50
2018-03-17T16:08:40.055Z,29.02
2018-03-17T16:11:07.623Z,31.60
2018-03-17T16:13:35.242Z,30.48
2018-03-17T16:16:06.114Z,31.50
2018-03-17T16:18:34.633Z,32.03
2018-03-17T16:21:02.297Z,31.23
2018-03-17T16:23:29.903Z,31.83
2018-03-17T16:26:01.923Z,32.33
2018-03-17T16:28:29.524Z,32.30
2018-03-17T16:30:58.433Z,32.28
2018-03-17T16:33:26.210Z,34.20
2018-03-17T16:36:13.292Z,32.63
2018-03-17T16:38:41.695Z,33.88
2018-03-17T16:41:09.326Z,31.58
2018-03-17T16:43:37.744Z,32.35
2018-03-17T16:46:13.523Z,29.45
2018-03-17T16:48:41.123Z,30.33
2018-03-17T16:51:09.556Z,30.50
2018-03-17T16:53:37.141Z,30.30
2018-03-17T16:56:04.727Z,31.12
2018-03-17T16:58:32.368Z,27.87
2018-03-17T17:00:59.953Z,30.02
2018-03-17T17:03:27.649Z,33.80
2018-03-17T17:05:55.229Z,31.05
2018-03-17T17:08:22.904Z,33.88
2018-03-17T17:10:51.516Z,20.25
2018-03-17T17:13:19.099Z,38.90
2018-03-17T17:15:46.734Z,32.30
2018-03-17T17:18:14.331Z,30.30
2018-03-17T17:20:41.960Z,30.42
2018-03-17T17:23:13.981Z,33.70
2018-03-17T17:25:41.600Z,34.05
2018-03-17T17:28:09.208Z,30.65
2018-03-17T17:30:36.831Z,32.92
2018-03-17T17:33:14.857Z,31.58
2018-03-17T17:35:46.053Z,29.60
2018-03-17T17:38:14.492Z,30.62
2018-03-17T17:40:42.136Z,29.60
2018-03-17T17:43:09.794Z,28.52
2018-03-17T17:45:38.242Z,34.00
2018-03-17T17:48:05.849Z,31.70
2018-03-17T17:50:40.928Z,29.48
2018-03-17T17:53:08.558Z,27.65
2018-03-17T17:55:36.156Z,28.48
2018-03-17T17:58:04.571Z,26.12
2018-03-17T18:00:32.176Z,27.10
2018-03-17T18:02:59.774Z,25.35
2018-03-17T18:05:27.341Z,26.37
2018-03-17T18:07:54.952Z,27.77
2018-03-17T18:10:22.562Z,27.60
2018-03-17T18:12:50.159Z,27.30
2018-03-17T18:15:17.773Z,29.50
2018-03-17T18:17:45.376Z,29.35
2018-03-17T18:20:13.009Z,26.60
2018-03-17T18:22:40.666Z,27.05
2018-03-17T18:25:08.262Z,27.92
2018-03-17T18:27:35.815Z,27.05
2018-03-17T18:30:03.405Z,28.50
2018-03-17T18:32:31.784Z,24.52
2018-03-17T18:35:00.190Z,28.05
2018-03-17T18:37:28.789Z,28.65
2018-03-17T18:39:56.392Z,30.33
2018-03-17T18:42:24.004Z,30.90
2018-03-17T18:44:51.632Z,29.37
2018-03-17T18:47:19.976Z,28.70
2018-03-17T18:49:47.575Z,29.25
2018-03-17T18:52:28.470Z,28.15
2018-03-17T18:54:56.116Z,29.80
2018-03-17T18:57:23.772Z,28.83
2018-03-17T18:59:51.398Z,28.67
2018-03-17T19:02:19.993Z,28.83
2018-03-17T19:04:54.386Z,27.40
2018-03-17T19:07:22.026Z,25.50
2018-03-17T19:09:49.685Z,28.25
2018-03-17T19:12:20.672Z,27.87
2018-03-17T19:14:48.280Z,25.95
2018-03-17T19:17:15.928Z,28.83
2018-03-17T19:19:44.137Z,26.00
2018-03-17T19:22:11.722Z,25.60
2018-03-17T19:24:39.347Z,27.00
2018-03-17T19:27:06.975Z,27.15
2018-03-17T19:29:35.477Z,24.33
2018-03-17T19:32:03.093Z,25.95
2018-03-17T19:34:30.708Z,26.80
2018-03-17T19:36:58.339Z,24.30
2018-03-17T19:39:25.898Z,25.40
2018-03-17T19:41:54.249Z,26.73
2018-03-17T19:44:22.712Z,26.40
2018-03-17T19:46:50.340Z,26.60
2018-03-17T19:49:17.935Z,27.37
2018-03-17T19:51:45.579Z,27.27
2018-03-17T19:54:13.239Z,27.27
2018-03-17T19:56:40.816Z,25.10
2018-03-17T19:59:08.438Z,27.60
2018-03-17T20:01:36.115Z,28.12
2018-03-17T20:04:03.759Z,24.70
2018-03-17T20:06:31.418Z,27.42
2018-03-17T20:08:59.089Z,23.70
2018-03-17T20:11:26.724Z,24.02
2018-03-17T20:13:55.179Z,27.85
2018-03-17T20:16:22.791Z,27.85
2018-03-17T20:18:50.460Z,26.52
2018-03-17T20:21:18.029Z,24.40
2018-03-17T20:23:45.683Z,27.40
2018-03-17T20:26:13.331Z,27.42
2018-03-17T20:28:40.918Z,27.10
2018-03-17T20:31:08.561Z,28.62
2018-03-17T20:33:36.202Z,33.53
2018-03-17T20:36:03.801Z,31.60
2018-03-17T20:38:31.436Z,31.50
2018-03-17T20:40:59.014Z,30.15
2018-03-17T20:43:26.670Z,30.73
2018-03-17T20:45:54.283Z,30.05
2018-03-17T20:48:22.713Z,30.25
2018-03-17T20:50:50.312Z,29.55
2018-03-17T20:53:17.952Z,29.50
2018-03-17T20:55:45.570Z,29.55
2018-03-17T20:58:13.187Z,28.35
2018-03-17T21:00:40.821Z,27.33
2018-03-17T21:03:08.447Z,30.42
2018-03-17T21:05:36.067Z,29.40
2018-03-17T21:08:03.680Z,28.55
2018-03-17T21:10:31.335Z,30.05
2018-03-17T21:12:58.931Z,29.60
2018-03-17T21:15:26.628Z,28.15
2018-03-17T21:17:54.255Z,27.13
2018-03-17T21:20:21.936Z,29.35
2018-03-17T21:22:49.572Z,33.33
2018-03-17T21:25:17.184Z,32.35
2018-03-17T21:27:44.859Z,32.00
2018-03-17T21:30:12.480Z,34.65
2018-03-17T21:32:40.094Z,35.00
2018-03-17T21:35:07.784Z,29.05
2018-03-17T21:37:35.339Z,30.58
2018-03-17T21:40:02.970Z,29.63
2018-03-17T21:42:31.390Z,32.92
2018-03-17T21:44:58.981Z,35.25
2018-03-17T21:47:26.571Z,33.35
2018-03-17T21:49:54.154Z,35.25
2018-03-17T21:52:21.762Z,32.40
2018-03-17T21:54:49.385Z,32.20
2018-03-17T21:57:17.058Z,33.45
2018-03-17T21:59:44.696Z,34.95
2018-03-17T22:02:12.365Z,29.80
2018-03-17T22:04:41.909Z,35.75
2018-03-17T22:07:09.477Z,35.60
2018-03-17T22:09:37.118Z,37.80
2018-03-17T22:12:04.759Z,30.92
2018-03-17T22:14:32.369Z,34.40
2018-03-17T22:17:00.797Z,33.40
2018-03-17T22:19:28.424Z,33.95
2018-03-17T22:21:56.655Z,30.95
2018-03-17T22:24:24.285Z,34.22
2018-03-17T22:26:51.903Z,32.28
2018-03-17T22:29:20.327Z,32.78
2018-03-17T22:31:47.933Z,35.35
2018-03-17T22:34:15.548Z,31.12
2018-03-17T22:36:43.938Z,33.38
2018-03-17T22:39:12.353Z,34.85
2018-03-17T22:41:39.971Z,34.00
2018-03-17T22:44:07.640Z,32.55
2018-03-17T22:46:35.239Z,34.22
2018-03-17T22:49:02.857Z,34.97
2018-03-17T22:51:31.241Z,33.42
2018-03-17T22:53:58.854Z,33.97
2018-03-17T22:56:27.461Z,32.22
2018-03-17T22:58:55.095Z,34.72
2018-03-17T23:01:23.457Z,33.47
2018-03-17T23:03:51.896Z,33.45
2018-03-17T23:06:19.528Z,36.88
2018-03-17T23:08:47.140Z,36.10
2018-03-17T23:11:14.782Z,33.80
2018-03-17T23:13:42.371Z,33.40
2018-03-17T23:16:11.049Z,32.17
2018-03-17T23:18:38.653Z,33.65
2018-03-17T23:21:06.285Z,32.72
2018-03-17T23:23:33.941Z,32.53
2018-03-17T23:26:01.527Z,34.30
2018-03-17T23:28:29.183Z,34.00
2018-03-17T23:30:57.572Z,33.55
2018-03-17T23:33:26.486Z,36.67
2018-03-17T23:35:54.079Z,33.38
2018-03-17T23:38:21.699Z,32.38
2018-03-17T23:40:49.293Z,32.67
2018-03-17T23:43:16.872Z,33.25
2018-03-17T23:45:44.496Z,33.70
2018-03-17T23:48:12.099Z,33.47
2018-03-17T23:50:39.738Z,33.75
2018-03-17T23:53:07.353Z,31.85
2018-03-17T23:55:35.716Z,32.17
2018-03-17T23:58:04.102Z,32.42
